Time;durP1;ratioP1;P1;durP2;ratioP2;P2;SDS_P1;SDS_P2;PMS_P1;PMS_P2;Temp;Humidity;BMP_temperature;BMP_pressure;BME280_temperature;BME280_humidity;BME280_pressure;Samples;Min_cycle;Max_cycle;Signal;HPM_P1;HPM_P2
2021/04/25 00:00:10;;;;;;;5.95;4.92;;;;;;;4.47;67.93;99352.89;1695345;84;21409;-61
2021/04/25 00:02:38;;;;;;;6.80;5.00;;;;;;;4.49;67.87;99360.64;1678896;84;20966;-57
2021/04/25 00:05:06;;;;;;;5.20;4.15;;;;;;;4.49;67.83;99358.01;1702555;84;21610;-56
2021/04/25 00:07:34;;;;;;;4.03;3.62;;;;;;;4.50;67.88;99356.58;1701798;84;21650;-56
2021/04/25 00:10:01;;;;;;;4.33;3.80;;;;;;;4.52;67.97;99353.31;1697332;84;21100;-59
2021/04/25 00:12:29;;;;;;;5.85;3.75;;;;;;;4.55;67.97;99350.42;1706964;84;21151;-59
2021/04/25 00:14:56;;;;;;;5.00;4.22;;;;;;;4.56;67.94;99348.14;1703023;83;21267;-56
2021/04/25 00:17:24;;;;;;;5.97;3.92;;;;;;;4.59;67.97;99350.48;1697755;83;21246;-57
2021/04/25 00:19:52;;;;;;;4.08;3.47;;;;;;;4.62;67.95;99347.58;1706662;83;21177;-55
2021/04/25 00:22:21;;;;;;;4.72;3.90;;;;;;;4.65;67.91;99342.52;1697860;84;21101;-59
2021/04/25 00:24:49;;;;;;;4.90;4.17;;;;;;;4.66;67.82;99334.50;1694547;84;21268;-57
2021/04/25 00:27:19;;;;;;;5.60;4.00;;;;;;;4.69;67.75;99336.02;1706897;82;21145;-57
2021/04/25 00:29:46;;;;;;;4.25;3.33;;;;;;;4.69;67.65;99332.88;1701803;83;21161;-58
2021/04/25 00:32:13;;;;;;;10.15;4.53;;;;;;;4.70;67.62;99333.23;1692792;83;21126;-61
2021/04/25 00:34:40;;;;;;;5.05;3.75;;;;;;;4.69;67.61;99327.61;1698885;83;21126;-61
2021/04/25 00:37:08;;;;;;;5.55;4.08;;;;;;;4.67;67.56;99325.60;1709232;83;22290;-62
2021/04/25 00:39:36;;;;;;;5.45;4.22;;;;;;;4.66;67.61;99326.59;1702031;83;21193;-58
2021/04/25 00:42:06;;;;;;;6.50;3.80;;;;;;;4.65;67.62;99322.76;1687310;83;20995;-58
2021/04/25 00:44:33;;;;;;;4.75;3.90;;;;;;;4.62;67.65;99318.59;1672184;84;21155;-56
2021/04/25 00:47:05;;;;;;;6.05;4.20;;;;;;;4.59;67.71;99314.91;1681661;84;21026;-57
2021/04/25 00:49:33;;;;;;;4.87;3.92;;;;;;;4.56;67.80;99314.37;1678754;84;21526;-57
2021/04/25 00:52:01;;;;;;;5.12;3.83;;;;;;;4.53;67.95;99311.52;1647346;84;21157;-56
2021/04/25 00:54:28;;;;;;;6.00;3.85;;;;;;;4.52;68.07;99313.80;1678939;84;21092;-58
2021/04/25 00:56:56;;;;;;;3.67;3.33;;;;;;;4.52;68.18;99316.43;1681212;84;21173;-56
2021/04/25 00:59:24;;;;;;;5.08;3.58;;;;;;;4.54;68.25;99314.97;1681143;84;21705;-55
2021/04/25 01:01:51;;;;;;;5.60;3.58;;;;;;;4.55;68.32;99310.89;1676818;84;21363;-56
2021/04/25 01:04:19;;;;;;;3.77;3.33;;;;;;;4.56;68.36;99316.53;1678499;84;21121;-56
2021/04/25 01:06:47;;;;;;;4.45;3.47;;;;;;;4.56;68.37;99311.73;1643879;85;21094;-57
2021/04/25 01:09:14;;;;;;;4.28;3.87;;;;;;;4.56;68.39;99318.32;1684550;84;21078;-58
2021/04/25 01:11:42;;;;;;;4.40;3.80;;;;;;;4.54;68.43;99322.39;1668767;84;21216;-57
2021/04/25 01:14:09;;;;;;;4.92;3.75;;;;;;;4.51;68.62;99317.90;1689069;84;21386;-57
2021/04/25 01:16:40;;;;;;;4.72;3.22;;;;;;;4.48;68.71;99311.10;1653865;84;21076;-57
2021/04/25 01:19:07;;;;;;;4.00;3.45;;;;;;;4.45;68.85;99300.83;1672451;84;21154;-57
2021/04/25 01:21:35;;;;;;;5.10;4.03;;;;;;;4.43;68.97;99290.92;1672812;84;21146;-57
2021/04/25 01:24:05;;;;;;;4.95;4.00;;;;;;;4.39;69.10;99298.73;1673101;84;21199;-58
2021/04/25 01:26:33;;;;;;;4.62;3.98;;;;;;;4.36;69.22;99297.68;1673182;84;22242;-57
2021/04/25 01:29:01;;;;;;;3.72;3.20;;;;;;;4.35;69.35;99298.67;1672998;84;20965;-57
2021/04/25 01:31:28;;;;;;;5.92;3.83;;;;;;;4.35;69.49;99299.98;1672842;84;21009;-57
2021/04/25 01:33:56;;;;;;;4.30;3.27;;;;;;;4.35;69.59;99292.89;1673024;84;21265;-56
2021/04/25 01:36:23;;;;;;;5.20;2.98;;;;;;;4.37;69.62;99295.41;1673078;84;21143;-57
2021/04/25 01:38:50;;;;;;;5.22;3.98;;;;;;;4.36;69.68;99294.56;1673094;84;21212;-59
2021/04/25 01:41:18;;;;;;;4.58;3.92;;;;;;;4.36;69.67;99293.25;1672796;84;21147;-56
2021/04/25 01:43:49;;;;;;;5.28;4.47;;;;;;;4.35;69.70;99294.20;1673123;84;21009;-56
2021/04/25 01:46:18;;;;;;;5.97;3.42;;;;;;;4.34;69.78;99295.67;1673098;84;21088;-60
2021/04/25 01:48:45;;;;;;;4.95;4.15;;;;;;;4.33;69.85;99293.99;1673050;84;21147;-57
2021/04/25 01:51:13;;;;;;;6.10;3.98;;;;;;;4.32;69.90;99291.87;1672764;84;22148;-57
2021/04/25 01:53:41;;;;;;;4.87;3.98;;;;;;;4.31;69.99;99288.03;1672916;84;21239;-58
2021/04/25 01:56:08;;;;;;;4.80;4.30;;;;;;;4.29;70.03;99287.34;1673075;84;20965;-57
2021/04/25 01:58:36;;;;;;;6.50;4.50;;;;;;;4.28;70.15;99289.62;1692002;84;21644;-57
2021/04/25 02:01:06;;;;;;;6.55;4.10;;;;;;;4.28;70.29;99284.35;1682891;84;21142;-57
2021/04/25 02:03:33;;;;;;;7.05;4.60;;;;;;;4.29;70.33;99286.87;1691380;84;21409;-60
2021/04/25 02:06:01;;;;;;;4.50;3.75;;;;;;;4.30;70.43;99284.56;1701710;84;21159;-57
2021/04/25 02:08:29;;;;;;;4.80;3.40;;;;;;;4.33;70.45;99288.73;1700595;84;21099;-57
2021/04/25 02:10:58;;;;;;;5.40;4.33;;;;;;;4.34;70.48;99279.87;1691740;84;20968;-60
2021/04/25 02:13:26;;;;;;;4.53;4.05;;;;;;;4.33;70.46;99280.34;1698241;82;21143;-58
2021/04/25 02:15:53;;;;;;;6.05;4.95;;;;;;;4.34;70.50;99283.82;1655183;84;21388;-57
2021/04/25 02:18:21;;;;;;;6.22;4.15;;;;;;;4.31;70.50;99277.02;1662427;84;20969;-56
2021/04/25 02:20:49;;;;;;;5.80;4.00;;;;;;;4.28;70.56;99273.34;1650402;84;20915;-58
2021/04/25 02:23:16;;;;;;;5.33;4.17;;;;;;;4.24;70.62;99281.66;1662545;84;21151;-56
2021/04/25 02:25:43;;;;;;;5.78;4.45;;;;;;;4.18;70.64;99278.23;1662733;84;21211;-57
2021/04/25 02:28:11;;;;;;;7.22;4.58;;;;;;;4.12;70.78;99274.33;1662606;84;21541;-56
2021/04/25 02:30:38;;;;;;;6.30;5.10;;;;;;;4.07;70.87;99283.59;1658190;84;21041;-59
2021/04/25 02:33:06;;;;;;;6.00;4.85;;;;;;;4.05;71.07;99286.86;1662659;84;21013;-57
2021/04/25 02:35:34;;;;;;;5.80;4.05;;;;;;;4.02;71.20;99281.38;1662610;84;21144;-58
2021/04/25 02:38:01;;;;;;;6.50;4.40;;;;;;;4.01;71.37;99286.31;1662790;84;21072;-55
2021/04/25 02:40:31;;;;;;;6.45;4.37;;;;;;;4.00;71.51;99286.42;1661501;84;21359;-56
2021/04/25 02:42:59;;;;;;;6.45;5.62;;;;;;;3.98;71.62;99281.78;1636668;84;21163;-56
2021/04/25 02:45:27;;;;;;;8.55;4.83;;;;;;;3.96;71.80;99281.93;1664183;84;21552;-60
2021/04/25 02:47:58;;;;;;;6.00;5.25;;;;;;;3.94;71.84;99287.78;1664187;84;21153;-59
2021/04/25 02:50:29;;;;;;;4.58;4.12;;;;;;;3.91;71.95;99283.30;1665174;84;21624;-60
2021/04/25 02:52:56;;;;;;;7.28;5.15;;;;;;;3.84;72.19;99286.08;1663184;84;21416;-59
2021/04/25 02:55:25;;;;;;;5.72;4.85;;;;;;;3.78;72.52;99282.69;1664060;84;21041;-58
2021/04/25 02:58:06;;;;;;;5.30;4.65;;;;;;;3.75;72.78;99286.41;1658166;85;20948;-57
2021/04/25 03:00:34;;;;;;;5.60;4.42;;;;;;;3.75;72.96;99279.84;1631640;87;21043;-56
2021/04/25 03:03:02;;;;;;;6.65;4.58;;;;;;;3.74;73.03;99282.95;1657476;85;21597;-59
2021/04/25 03:05:30;;;;;;;6.15;4.62;;;;;;;3.74;73.02;99283.42;1670666;85;21369;-59
2021/04/25 03:07:57;;;;;;;5.40;4.40;;;;;;;3.71;73.15;99281.05;1670648;85;21099;-57
2021/04/25 03:10:25;;;;;;;6.45;5.00;;;;;;;3.70;73.22;99277.58;1646285;85;21166;-58
2021/04/25 03:12:53;;;;;;;8.65;6.03;;;;;;;3.68;73.38;99277.36;1627475;86;21167;-58
2021/04/25 03:15:21;;;;;;;6.92;6.17;;;;;;;3.66;73.59;99277.98;1644557;85;21155;-59
2021/04/25 03:18:08;;;;;;;7.47;4.83;;;;;;;3.65;73.66;99282.41;1634135;86;21247;-58
2021/04/25 03:20:36;;;;;;;6.70;5.42;;;;;;;3.68;73.80;99280.83;1614130;88;20998;-58
2021/04/25 03:23:03;;;;;;;7.10;5.65;;;;;;;3.71;73.92;99277.09;1617039;87;20994;-60
2021/04/25 03:25:31;;;;;;;8.45;5.62;;;;;;;3.74;73.86;99282.10;1613961;87;21214;-56
2021/04/25 03:28:00;;;;;;;6.03;5.25;;;;;;;3.79;73.77;99286.48;1628570;86;21537;-59
2021/04/25 03:30:27;;;;;;;6.70;5.67;;;;;;;3.83;73.75;99276.54;1587170;88;21451;-58
2021/04/25 03:32:55;;;;;;;11.63;6.53;;;;;;;3.86;73.81;99274.96;1628177;86;21190;-57
2021/04/25 03:35:23;;;;;;;8.73;5.95;;;;;;;3.88;73.95;99280.92;1570269;88;21198;-59
2021/04/25 03:37:50;;;;;;;8.78;5.80;;;;;;;3.92;73.96;99275.25;1617748;87;21225;-56
2021/04/25 03:40:19;;;;;;;6.42;5.00;;;;;;;4.03;74.03;99279.58;1648383;85;21128;-57
2021/04/25 03:42:47;;;;;;;5.37;4.45;;;;;;;4.14;73.85;99280.33;1617185;87;21391;-59
2021/04/25 03:45:15;;;;;;;6.70;4.67;;;;;;;4.24;73.79;99277.70;1648192;85;21102;-57
2021/04/25 03:47:48;;;;;;;6.90;5.10;;;;;;;4.31;73.33;99280.14;1644391;85;21194;-56
2021/04/25 03:50:19;;;;;;;6.12;5.03;;;;;;;4.31;73.18;99279.66;1646113;85;21197;-57
2021/04/25 03:52:47;;;;;;;8.30;5.53;;;;;;;4.32;73.18;99281.81;1631108;85;21162;-56
2021/04/25 03:55:15;;;;;;;7.28;5.80;;;;;;;4.32;73.20;99282.66;1646614;85;21392;-57
2021/04/25 03:57:43;;;;;;;8.88;5.70;;;;;;;4.31;73.31;99275.70;1645130;85;21130;-59
2021/04/25 04:00:12;;;;;;;7.80;6.35;;;;;;;4.35;73.22;99277.59;1644388;85;21190;-58
2021/04/25 04:02:40;;;;;;;10.35;7.67;;;;;;;4.40;73.17;99279.81;1647345;85;21161;-59
2021/04/25 04:05:09;;;;;;;11.05;8.63;;;;;;;4.49;72.99;99278.98;1644345;85;21115;-58
2021/04/25 04:07:37;;;;;;;12.95;9.40;;;;;;;4.58;72.77;99280.81;1648334;85;22295;-56
2021/04/25 04:10:08;;;;;;;12.98;9.70;;;;;;;4.65;72.56;99270.05;1617140;87;21128;-57
2021/04/25 04:12:35;;;;;;;12.95;9.50;;;;;;;4.76;72.27;99273.88;1644767;85;20919;-57
2021/04/25 04:15:05;;;;;;;12.63;9.83;;;;;;;4.84;72.02;99272.23;1640026;85;21056;-57
2021/04/25 04:17:33;;;;;;;12.07;8.75;;;;;;;4.93;71.69;99280.60;1640866;85;21629;-57
2021/04/25 04:20:00;;;;;;;9.88;7.60;;;;;;;4.98;71.44;99286.77;1641487;85;22425;-57
2021/04/25 04:22:28;;;;;;;11.25;7.58;;;;;;;5.02;71.36;99276.78;1641557;85;21105;-57
2021/04/25 04:24:55;;;;;;;9.78;7.70;;;;;;;5.08;71.46;99281.52;1641715;85;21569;-57
2021/04/25 04:27:23;;;;;;;12.35;8.48;;;;;;;5.13;71.31;99280.59;1647894;85;21224;-57
2021/04/25 04:29:50;;;;;;;12.00;8.60;;;;;;;5.17;71.56;99280.17;1647867;85;21209;-57
2021/04/25 04:32:18;;;;;;;8.73;6.40;;;;;;;5.23;71.60;99277.45;1648778;85;22326;-57
2021/04/25 04:34:46;;;;;;;8.93;6.33;;;;;;;5.29;71.24;99282.18;1647646;85;21191;-57
2021/04/25 04:37:13;;;;;;;8.70;6.75;;;;;;;5.35;70.97;99278.95;1647586;85;21162;-59
2021/04/25 04:39:43;;;;;;;8.68;6.12;;;;;;;5.39;71.02;99275.07;1648125;85;21174;-61
2021/04/25 04:42:11;;;;;;;7.60;5.85;;;;;;;5.40;70.44;99268.33;1629499;85;21201;-58
2021/04/25 04:44:39;;;;;;;7.78;5.97;;;;;;;5.38;70.41;99274.23;1655530;85;21403;-61
2021/04/25 04:47:06;;;;;;;7.67;5.83;;;;;;;5.37;70.13;99273.07;1647768;85;21232;-60
2021/04/25 04:49:35;;;;;;;7.60;5.78;;;;;;;5.36;70.14;99265.64;1647875;85;21591;-57
2021/04/25 04:52:04;;;;;;;8.18;6.37;;;;;;;5.45;70.25;99263.93;1660993;85;21275;-56
2021/04/25 04:54:31;;;;;;;7.62;6.47;;;;;;;5.68;70.16;99259.16;1652010;85;21212;-57
2021/04/25 04:56:58;;;;;;;8.53;7.03;;;;;;;6.04;69.79;99259.17;1647630;85;21279;-61
2021/04/25 04:59:26;;;;;;;6.58;5.95;;;;;;;6.49;69.11;99259.15;1647956;85;21129;-58
2021/04/25 05:01:53;;;;;;;7.65;6.35;;;;;;;6.99;68.12;99258.65;1626381;86;21233;-58
2021/04/25 05:04:21;;;;;;;8.23;6.25;;;;;;;7.53;66.72;99256.22;1620075;86;21617;-61
2021/04/25 05:06:49;;;;;;;7.28;6.53;;;;;;;8.05;65.26;99256.00;1650201;85;21176;-60
2021/04/25 05:09:16;;;;;;;7.85;6.40;;;;;;;8.58;63.50;99256.99;1671621;85;21416;-62
2021/04/25 05:11:43;;;;;;;8.03;7.20;;;;;;;8.92;61.55;99262.67;1670368;84;21176;-57
2021/04/25 05:14:12;;;;;;;8.23;7.30;;;;;;;9.02;60.52;99260.70;1669216;85;21029;-57
2021/04/25 05:16:40;;;;;;;8.93;6.92;;;;;;;9.03;60.04;99262.34;1629261;85;21053;-59
2021/04/25 05:19:10;;;;;;;9.30;7.40;;;;;;;9.04;59.57;99263.53;1646957;85;21244;-58
2021/04/25 05:21:37;;;;;;;8.33;6.95;;;;;;;9.08;59.50;99266.66;1641828;86;21336;-56
2021/04/25 05:24:07;;;;;;;8.25;7.45;;;;;;;9.14;59.32;99263.35;1639900;86;21182;-57
2021/04/25 05:26:35;;;;;;;8.90;7.47;;;;;;;9.21;58.98;99259.86;1640561;86;21158;-56
2021/04/25 05:29:03;;;;;;;8.10;6.90;;;;;;;9.21;58.44;99261.68;1650596;86;21211;-60
2021/04/25 05:31:33;;;;;;;9.25;6.87;;;;;;;9.12;58.20;99258.72;1645147;86;21239;-56
2021/04/25 05:34:02;;;;;;;7.45;6.65;;;;;;;8.96;58.38;99258.22;1651644;86;21211;-57
2021/04/25 05:36:29;;;;;;;7.80;6.22;;;;;;;8.87;58.56;99259.68;1660450;85;21131;-59
2021/04/25 05:38:58;;;;;;;7.72;6.45;;;;;;;8.71;58.75;99259.16;1639475;86;21165;-58
2021/04/25 05:41:26;;;;;;;8.18;7.17;;;;;;;8.58;59.29;99258.81;1642868;86;21038;-59
2021/04/25 05:43:54;;;;;;;8.83;6.47;;;;;;;8.49;59.76;99257.16;1646407;86;21202;-60
2021/04/25 05:46:21;;;;;;;8.78;7.17;;;;;;;8.43;59.74;99253.32;1635864;86;21402;-60
2021/04/25 05:48:52;;;;;;;7.87;6.42;;;;;;;8.32;59.84;99258.92;1648492;86;21164;-58
2021/04/25 05:51:19;;;;;;;10.03;7.17;;;;;;;8.26;60.36;99255.58;1641780;86;21205;-60
2021/04/25 05:53:47;;;;;;;9.63;7.35;;;;;;;8.22;60.27;99260.00;1639955;86;21223;-56
2021/04/25 05:56:15;;;;;;;10.60;7.90;;;;;;;8.14;60.56;99263.46;1642565;86;21145;-60
2021/04/25 05:58:43;;;;;;;11.15;7.20;;;;;;;8.09;60.86;99262.63;1643550;86;21228;-58
2021/04/25 06:01:10;;;;;;;9.68;6.97;;;;;;;8.14;61.23;99262.63;1644490;86;21189;-56
2021/04/25 06:03:37;;;;;;;9.00;6.83;;;;;;;8.24;61.00;99262.02;1641458;86;21182;-60
2021/04/25 06:06:05;;;;;;;7.78;6.87;;;;;;;8.27;60.81;99264.36;1644057;86;21173;-57
2021/04/25 06:08:33;;;;;;;18.12;11.78;;;;;;;8.23;60.71;99267.81;1642222;86;21213;-60
2021/04/25 06:11:00;;;;;;;12.18;9.28;;;;;;;8.16;60.92;99270.75;1641033;86;22346;-59
2021/04/25 06:13:29;;;;;;;10.25;7.67;;;;;;;8.06;60.92;99272.21;1643072;86;21618;-63
2021/04/25 06:15:56;;;;;;;8.75;7.62;;;;;;;8.07;61.24;99270.39;1641466;86;21244;-58
2021/04/25 06:18:25;;;;;;;8.18;7.03;;;;;;;8.06;61.37;99258.12;1606032;87;21148;-58
2021/04/25 06:20:53;;;;;;;7.12;6.25;;;;;;;8.08;61.53;99258.82;1614611;87;21601;-61
2021/04/25 06:23:23;;;;;;;8.18;6.22;;;;;;;8.19;61.37;99263.81;1615498;87;21395;-58
2021/04/25 06:25:50;;;;;;;8.53;6.58;;;;;;;8.40;61.16;99270.03;1617338;87;21659;-59
2021/04/25 06:28:21;;;;;;;8.35;6.85;;;;;;;8.68;60.68;99262.97;1618285;87;21091;-58
2021/04/25 06:30:49;;;;;;;7.70;6.72;;;;;;;8.99;60.04;99270.32;1612538;87;21125;-59
2021/04/25 06:33:18;;;;;;;9.10;6.62;;;;;;;9.31;59.76;99263.66;1616267;87;21226;-59
2021/04/25 06:35:46;;;;;;;10.75;7.37;;;;;;;9.67;58.83;99266.25;1614779;87;21493;-64
2021/04/25 06:38:16;;;;;;;8.50;7.30;;;;;;;10.01;57.92;99262.53;1628200;87;21193;-59
2021/04/25 06:40:43;;;;;;;12.80;7.17;;;;;;;10.35;57.17;99255.91;1633885;87;21689;-59
2021/04/25 06:43:11;;;;;;;7.42;6.55;;;;;;;10.74;56.55;99250.52;1656972;85;21079;-58
2021/04/25 06:45:38;;;;;;;8.28;7.33;;;;;;;11.10;55.28;99250.77;1665724;85;21227;-59
2021/04/25 06:48:08;;;;;;;7.75;6.70;;;;;;;11.41;53.81;99247.99;1659551;85;21346;-58
2021/04/25 06:50:35;;;;;;;11.12;6.95;;;;;;;11.66;53.26;99248.89;1656130;85;20994;-58
2021/04/25 06:53:03;;;;;;;9.83;7.87;;;;;;;11.95;52.79;99246.77;1633317;86;21024;-63
2021/04/25 06:55:32;;;;;;;9.50;7.42;;;;;;;12.13;51.33;99247.22;1637730;86;21632;-61
2021/04/25 06:58:00;;;;;;;8.53;7.28;;;;;;;12.30;50.74;99244.69;1639280;85;21154;-62
2021/04/25 07:00:27;;;;;;;7.60;6.80;;;;;;;12.58;49.66;99246.63;1597511;88;21243;-60
2021/04/25 07:02:55;;;;;;;10.43;7.58;;;;;;;12.75;49.03;99239.52;1644521;85;21213;-60
2021/04/25 07:05:25;;;;;;;10.40;7.85;;;;;;;12.90;48.27;99239.48;1618983;87;21097;-60
2021/04/25 07:07:53;;;;;;;8.80;7.17;;;;;;;12.98;47.92;99250.03;1588652;88;21197;-60
2021/04/25 07:10:21;;;;;;;8.28;6.40;;;;;;;13.11;47.87;99248.02;1624137;87;21192;-62
2021/04/25 07:12:48;;;;;;;9.08;7.22;;;;;;;13.31;47.01;99241.00;1605960;88;21402;-60
2021/04/25 07:15:15;;;;;;;7.87;7.05;;;;;;;13.53;46.96;99242.62;1600089;88;21192;-61
2021/04/25 07:17:43;;;;;;;7.67;6.30;;;;;;;13.79;45.98;99243.30;1602900;88;21173;-60
2021/04/25 07:20:12;;;;;;;7.15;6.55;;;;;;;13.95;46.16;99236.28;1604932;88;21242;-61
2021/04/25 07:22:40;;;;;;;7.60;6.62;;;;;;;14.11;45.85;99236.79;1600276;88;21167;-63
2021/04/25 07:25:11;;;;;;;7.37;6.53;;;;;;;14.25;44.86;99237.68;1617689;87;21621;-59
2021/04/25 07:27:40;;;;;;;8.93;7.33;;;;;;;14.37;44.75;99233.94;1590567;88;21157;-61
2021/04/25 07:30:14;;;;;;;8.03;6.47;;;;;;;14.43;43.68;99223.27;1646463;85;21066;-60
2021/04/25 07:32:42;;;;;;;9.23;6.72;;;;;;;14.47;43.85;99229.05;1639598;85;21182;-65
2021/04/25 07:35:11;;;;;;;7.22;5.83;;;;;;;14.57;43.78;99228.95;1644652;85;21114;-60
2021/04/25 07:37:39;;;;;;;7.37;6.12;;;;;;;14.67;43.29;99228.59;1642102;85;21627;-59
2021/04/25 07:40:08;;;;;;;7.78;6.42;;;;;;;14.65;42.04;99235.47;1614505;87;21220;-57
2021/04/25 07:42:37;;;;;;;9.48;7.00;;;;;;;14.42;41.95;99239.00;1640145;85;21182;-60
2021/04/25 07:45:08;;;;;;;9.20;5.87;;;;;;;14.27;42.18;99239.64;1642551;85;21161;-60
2021/04/25 07:47:35;;;;;;;12.40;5.87;;;;;;;14.22;42.01;99240.75;1643367;85;21229;-59
2021/04/25 07:50:04;;;;;;;6.00;5.42;;;;;;;14.09;41.93;99238.02;1643109;85;21549;-59
2021/04/25 07:52:32;;;;;;;6.30;5.40;;;;;;;13.89;42.34;99241.10;1639886;85;21169;-60
2021/04/25 07:55:00;;;;;;;6.03;5.22;;;;;;;13.77;42.90;99226.61;1643845;85;21163;-61
2021/04/25 07:57:27;;;;;;;9.23;5.65;;;;;;;13.70;42.68;99226.59;1644496;85;21058;-60
2021/04/25 07:59:56;;;;;;;5.87;5.20;;;;;;;13.59;42.74;99222.61;1627075;87;21187;-63
2021/04/25 08:02:23;;;;;;;8.58;5.80;;;;;;;13.54;42.71;99225.05;1620345;87;21612;-61
2021/04/25 08:04:51;;;;;;;6.28;5.10;;;;;;;13.51;42.77;99229.44;1625250;87;21183;-61
2021/04/25 08:07:18;;;;;;;5.67;5.00;;;;;;;13.50;43.32;99220.29;1620859;87;21208;-60
2021/04/25 08:09:46;;;;;;;5.17;4.67;;;;;;;13.63;42.56;99223.56;1615546;87;21105;-61
2021/04/25 08:12:13;;;;;;;6.22;5.10;;;;;;;13.68;42.84;99221.95;1621950;87;21058;-60
2021/04/25 08:14:43;;;;;;;6.55;5.40;;;;;;;13.78;41.96;99213.57;1619664;87;21072;-62
2021/04/25 08:17:11;;;;;;;5.17;4.67;;;;;;;13.69;42.36;99211.56;1618489;87;21670;-58
2021/04/25 08:19:38;;;;;;;9.13;4.78;;;;;;;13.84;42.25;99211.45;1618845;87;21101;-59
2021/04/25 08:22:07;;;;;;;5.78;5.28;;;;;;;13.96;42.06;99212.54;1613446;87;21002;-66
2021/04/25 08:24:34;;;;;;;5.75;5.25;;;;;;;13.89;41.82;99205.00;1611404;87;21169;-60
2021/04/25 08:27:02;;;;;;;7.40;6.65;;;;;;;13.81;41.86;99208.67;1643605;86;21380;-61
2021/04/25 08:29:29;;;;;;;10.23;5.95;;;;;;;13.73;42.79;99207.48;1642292;86;21023;-60
2021/04/25 08:31:57;;;;;;;6.17;5.58;;;;;;;13.59;42.38;99209.24;1645060;86;20959;-59
2021/04/25 08:34:27;;;;;;;6.45;5.85;;;;;;;13.38;41.96;99208.47;1640724;86;21173;-58
2021/04/25 08:36:55;;;;;;;7.65;5.87;;;;;;;13.09;42.59;99197.45;1640303;86;21203;-59
2021/04/25 08:39:22;;;;;;;7.40;6.15;;;;;;;13.01;43.31;99202.90;1640509;86;23601;-64
2021/04/25 08:41:50;;;;;;;8.03;5.70;;;;;;;12.89;43.42;99205.28;1646309;86;21044;-60
2021/04/25 08:44:20;;;;;;;6.40;5.53;;;;;;;12.78;44.07;99198.27;1648449;86;21125;-60
2021/04/25 08:46:49;;;;;;;5.85;5.25;;;;;;;12.75;44.04;99197.31;1646969;86;21584;-61
2021/04/25 08:49:18;;;;;;;6.58;5.90;;;;;;;12.61;43.04;99201.72;1639261;86;21138;-60
2021/04/25 08:51:46;;;;;;;7.35;5.20;;;;;;;12.42;43.62;99200.99;1645912;86;22068;-65
2021/04/25 08:54:15;;;;;;;8.28;5.53;;;;;;;12.22;44.45;99206.12;1641700;86;21157;-61
2021/04/25 08:56:42;;;;;;;6.95;6.25;;;;;;;12.04;45.42;99200.36;1639820;86;21007;-59
2021/04/25 08:59:10;;;;;;;7.42;6.30;;;;;;;11.82;45.54;99207.11;1639766;86;21188;-59
2021/04/25 09:01:39;;;;;;;9.80;6.35;;;;;;;11.47;45.90;99202.80;1630501;87;21181;-58
2021/04/25 09:04:06;;;;;;;6.97;6.28;;;;;;;11.11;46.95;99204.48;1657638;86;21239;-59
2021/04/25 09:06:35;;;;;;;11.80;10.10;;;;;;;10.78;47.71;99209.77;1660678;86;21216;-67
2021/04/25 09:09:08;;;;;;;8.80;7.65;;;;;;;10.50;48.51;99216.12;1623602;87;21128;-60
2021/04/25 09:11:40;;;;;;;7.58;6.70;;;;;;;10.25;49.27;99214.58;1641863;86;21515;-61
2021/04/25 09:14:22;;;;;;;9.38;7.05;;;;;;;10.00;49.72;99210.36;1643604;86;21137;-61
2021/04/25 09:17:00;;;;;;;11.20;6.72;;;;;;;9.70;50.89;99216.78;1605225;87;21383;-59
2021/04/25 09:19:47;;;;;;;7.08;5.30;;;;;;;9.48;51.47;99216.69;1594642;88;20991;-60
2021/04/25 09:22:15;;;;;;;6.20;4.75;;;;;;;9.39;51.83;99212.38;1624826;86;21134;-58
2021/04/25 09:24:43;;;;;;;4.42;3.70;;;;;;;9.39;52.87;99217.20;1634518;86;21612;-59
2021/04/25 09:27:11;;;;;;;5.97;4.45;;;;;;;9.42;53.08;99213.38;1631375;86;21808;-59
2021/04/25 09:29:51;;;;;;;6.12;4.87;;;;;;;9.41;53.43;99216.52;1631786;86;22231;-59
2021/04/25 09:32:23;;;;;;;4.55;3.98;;;;;;;9.42;53.25;99221.34;1630056;86;21237;-58
2021/04/25 09:34:51;;;;;;;7.60;4.50;;;;;;;9.43;53.74;99213.71;1632018;86;21090;-60
2021/04/25 09:37:19;;;;;;;5.08;3.33;;;;;;;9.59;53.82;99217.66;1634037;86;21145;-58
2021/04/25 09:40:08;;;;;;;4.10;3.02;;;;;;;9.81;53.13;99216.42;1632943;86;21171;-60
2021/04/25 09:42:59;;;;;;;5.62;3.45;;;;;;;10.03;52.19;99220.66;1631760;86;21378;-56
2021/04/25 09:45:40;;;;;;;4.40;3.72;;;;;;;10.21;52.07;99218.11;1638965;86;21152;-63
2021/04/25 09:48:27;;;;;;;4.03;2.30;;;;;;;10.34;50.93;99213.55;1637891;86;21153;-67
2021/04/25 09:51:22;;;;;;;6.47;3.58;;;;;;;10.33;50.84;99210.55;1639123;86;21248;-65
2021/04/25 09:53:56;;;;;;;3.65;3.27;;;;;;;10.35;50.86;99212.56;1656884;86;20963;-64
2021/04/25 09:56:38;;;;;;;3.47;2.50;;;;;;;10.39;50.40;99204.55;1658847;86;21429;-65
2021/04/25 09:59:07;;;;;;;3.50;2.58;;;;;;;10.44;49.77;99202.19;1656552;86;21768;-67
2021/04/25 10:01:40;;;;;;;3.70;2.40;;;;;;;10.44;49.68;99197.70;1658265;86;21666;-68
2021/04/25 10:04:37;;;;;;;3.58;2.12;;;;;;;10.42;49.55;99200.21;1656917;86;21125;-64
2021/04/25 10:07:06;;;;;;;2.33;1.90;;;;;;;10.37;49.20;99193.27;1656740;86;21218;-65
2021/04/25 10:09:35;;;;;;;2.45;2.10;;;;;;;10.29;49.17;99199.95;1658597;86;21224;-66
2021/04/25 10:12:04;;;;;;;2.52;2.20;;;;;;;10.16;49.15;99198.36;1657357;85;21143;-63
2021/04/25 10:14:33;;;;;;;2.12;1.90;;;;;;;10.01;49.11;99203.53;1634468;87;21184;-65
2021/04/25 10:17:05;;;;;;;2.60;2.33;;;;;;;9.88;49.39;99212.59;1613878;87;21208;-65
2021/04/25 10:19:33;;;;;;;2.33;1.65;;;;;;;9.80;49.56;99208.64;1641889;85;21157;-64
2021/04/25 10:22:02;;;;;;;2.70;1.98;;;;;;;9.80;49.13;99212.62;1643494;85;21403;-66
2021/04/25 10:24:32;;;;;;;2.85;1.60;;;;;;;9.71;49.56;99209.16;1644667;85;21243;-65
2021/04/25 10:27:08;;;;;;;3.40;1.67;;;;;;;9.65;49.94;99213.81;1594324;88;21626;-65
2021/04/25 10:30:00;;;;;;;3.45;2.27;;;;;;;9.66;49.85;99218.14;1568348;88;21108;-65
2021/04/25 10:32:27;;;;;;;5.87;1.67;;;;;;;9.66;49.18;99215.48;1621420;87;21128;-67
2021/04/25 10:35:18;;;;;;;1.87;1.70;;;;;;;9.60;48.11;99220.13;1621378;86;21722;-66
2021/04/25 10:37:49;;;;;;;2.72;1.70;;;;;;;9.55;48.28;99221.64;1621354;87;21001;-67
2021/04/25 10:40:36;;;;;;;1.87;1.60;;;;;;;9.61;48.10;99223.63;1621263;86;21208;-65
2021/04/25 10:43:09;;;;;;;2.05;1.75;;;;;;;9.80;48.11;99221.39;1621340;87;21232;-66
2021/04/25 10:46:00;;;;;;;2.70;2.00;;;;;;;10.07;48.01;99222.78;1621293;87;21173;-65
2021/04/25 10:48:32;;;;;;;1.75;1.60;;;;;;;10.30;47.77;99214.88;1621284;86;21607;-68
2021/04/25 10:51:13;;;;;;;1.45;1.20;;;;;;;10.58;46.67;99212.58;1623529;86;21629;-67
2021/04/25 10:53:44;;;;;;;2.22;1.40;;;;;;;10.66;45.36;99218.67;1621262;87;21163;-70
2021/04/25 10:56:20;;;;;;;3.50;1.37;;;;;;;10.58;44.50;99216.56;1621369;87;21625;-63
2021/04/25 10:58:51;;;;;;;1.50;1.40;;;;;;;10.55;44.28;99215.09;1621211;86;21284;-65
2021/04/25 11:01:45;;;;;;;1.37;1.27;;;;;;;10.61;44.15;99218.88;1617833;86;21457;-63
2021/04/25 11:04:12;;;;;;;1.47;1.27;;;;;;;10.64;44.18;99211.34;1639462;86;21595;-64
2021/04/25 11:06:41;;;;;;;3.17;1.55;;;;;;;10.75;43.94;99218.09;1563877;89;21163;-64
2021/04/25 11:09:50;;;;;;;1.22;1.10;;;;;;;10.69;43.63;99219.62;1593512;88;21150;-66
2021/04/25 11:12:39;;;;;;;3.40;1.42;;;;;;;10.59;43.54;99215.54;1633368;86;21225;-67
2021/04/25 11:15:10;;;;;;;2.30;1.92;;;;;;;10.48;44.25;99220.79;1557910;87;22417;-69
2021/04/25 11:17:37;;;;;;;1.90;1.50;;;;;;;10.38;44.04;99215.67;1607768;86;20987;-66
2021/04/25 11:20:30;;;;;;;2.25;1.50;;;;;;;10.26;44.01;99217.09;1635059;85;21286;-66
2021/04/25 11:23:00;;;;;;;6.05;1.37;;;;;;;10.16;44.39;99219.62;1647798;86;21115;-68
2021/04/25 11:25:31;;;;;;;1.95;1.55;;;;;;;10.18;44.92;99214.47;1661173;86;21162;-68
2021/04/25 11:27:59;;;;;;;3.75;2.37;;;;;;;10.20;44.90;99218.27;1661068;86;22841;-68
2021/04/25 11:30:41;;;;;;;2.55;1.98;;;;;;;10.25;44.90;99211.92;1661664;86;21643;-67
2021/04/25 11:33:33;;;;;;;3.47;2.30;;;;;;;10.23;44.90;99212.61;1653674;86;21094;-66
2021/04/25 11:36:37;;;;;;;4.37;2.65;;;;;;;10.24;45.26;99209.80;1624894;87;21197;-69
2021/04/25 11:39:07;;;;;;;4.25;2.87;;;;;;;10.31;45.25;99213.89;1616187;86;21619;-66
2021/04/25 11:41:36;;;;;;;6.62;3.30;;;;;;;10.45;45.69;99207.84;1633512;86;22166;-67
2021/04/25 11:44:06;;;;;;;4.47;2.77;;;;;;;10.60;45.76;99206.56;1634454;86;21169;-67
2021/04/25 11:46:35;;;;;;;4.25;2.62;;;;;;;10.74;45.42;99207.95;1634487;86;21104;-69
2021/04/25 11:49:08;;;;;;;2.92;1.87;;;;;;;10.85;45.02;99198.22;1634318;86;21217;-66
2021/04/25 11:51:35;;;;;;;4.05;2.10;;;;;;;10.94;44.69;99198.49;1634567;86;21141;-66